sensor_id;sensor_type;location;lat;lon;timestamp;pressure;altitude;pressure_sealevel;temperature;humidity
11487;BME280;10510;47.942;9.442;2023-10-13T00:01:44;94851.78;;;16.23;100.00
11487;BME280;10510;47.942;9.442;2023-10-13T00:03:44;94853.03;;;16.21;100.00
11487;BME280;10510;47.942;9.442;2023-10-13T00:05:44;94855.06;;;16.19;100.00
11487;BME280;10510;47.942;9.442;2023-10-13T00:07:44;94849.63;;;16.13;100.00
11487;BME280;10510;47.942;9.442;2023-10-13T00:09:45;94857.34;;;16.08;100.00
11487;BME280;10510;47.942;9.442;2023-10-13T00:11:45;94853.53;;;16.04;100.00
11487;BME280;10510;47.942;9.442;2023-10-13T00:13:46;94855.56;;;16.02;100.00
11487;BME280;10510;47.942;9.442;2023-10-13T00:15:53;94854.56;;;15.97;100.00
11487;BME280;10510;47.942;9.442;2023-10-13T00:17:59;94853.81;;;15.89;100.00
11487;BME280;10510;47.942;9.442;2023-10-13T00:19:59;94852.03;;;15.83;100.00
11487;BME280;10510;47.942;9.442;2023-10-13T00:22:00;94841.72;;;15.75;100.00
11487;BME280;10510;47.942;9.442;2023-10-13T00:24:08;94845.19;;;15.69;100.00
11487;BME280;10510;47.942;9.442;2023-10-13T00:26:13;94847.59;;;15.64;100.00
11487;BME280;10510;47.942;9.442;2023-10-13T00:28:18;94845.41;;;15.61;100.00
11487;BME280;10510;47.942;9.442;2023-10-13T00:30:23;94842.56;;;15.56;100.00
11487;BME280;10510;47.942;9.442;2023-10-13T00:32:33;94840.34;;;15.53;100.00
11487;BME280;10510;47.942;9.442;2023-10-13T00:34:37;94847.69;;;15.51;100.00
11487;BME280;10510;47.942;9.442;2023-10-13T00:36:38;94845.25;;;15.49;100.00
11487;BME280;10510;47.942;9.442;2023-10-13T00:38:48;94839.19;;;15.42;100.00
11487;BME280;10510;47.942;9.442;2023-10-13T00:40:48;94834.53;;;15.37;100.00
11487;BME280;10510;47.942;9.442;2023-10-13T00:42:53;94837.59;;;15.34;100.00
11487;BME280;10510;47.942;9.442;2023-10-13T00:44:53;94832.97;;;15.30;100.00
11487;BME280;10510;47.942;9.442;2023-10-13T00:46:55;94826.72;;;15.24;100.00
11487;BME280;10510;47.942;9.442;2023-10-13T00:48:56;94829.94;;;15.19;100.00
11487;BME280;10510;47.942;9.442;2023-10-13T00:51:03;94832.38;;;15.14;100.00
11487;BME280;10510;47.942;9.442;2023-10-13T00:53:07;94832.22;;;15.09;100.00
11487;BME280;10510;47.942;9.442;2023-10-13T00:55:09;94830.56;;;15.08;100.00
11487;BME280;10510;47.942;9.442;2023-10-13T00:57:15;94825.53;;;15.07;100.00
11487;BME280;10510;47.942;9.442;2023-10-13T00:59:28;94835.66;;;15.03;100.00
11487;BME280;10510;47.942;9.442;2023-10-13T01:01:29;94831.19;;;14.97;100.00
11487;BME280;10510;47.942;9.442;2023-10-13T01:03:36;94832.44;;;14.94;100.00
11487;BME280;10510;47.942;9.442;2023-10-13T01:05:38;94838.13;;;14.91;100.00
11487;BME280;10510;47.942;9.442;2023-10-13T01:07:40;94833.88;;;14.84;100.00
11487;BME280;10510;47.942;9.442;2023-10-13T01:09:41;94833.06;;;14.83;100.00
11487;BME280;10510;47.942;9.442;2023-10-13T01:11:49;94834.66;;;14.84;100.00
11487;BME280;10510;47.942;9.442;2023-10-13T01:13:52;94822.13;;;14.86;100.00
11487;BME280;10510;47.942;9.442;2023-10-13T01:15:53;94829.19;;;14.92;100.00
11487;BME280;10510;47.942;9.442;2023-10-13T01:17:53;94824.13;;;14.97;100.00
11487;BME280;10510;47.942;9.442;2023-10-13T01:19:56;94819.88;;;14.96;100.00
11487;BME280;10510;47.942;9.442;2023-10-13T01:21:58;94820.28;;;14.93;100.00
11487;BME280;10510;47.942;9.442;2023-10-13T01:24:07;94818.69;;;14.92;100.00
11487;BME280;10510;47.942;9.442;2023-10-13T01:26:08;94815.03;;;14.93;100.00
11487;BME280;10510;47.942;9.442;2023-10-13T01:28:09;94814.22;;;14.93;100.00
11487;BME280;10510;47.942;9.442;2023-10-13T01:30:10;94813.59;;;14.91;100.00
11487;BME280;10510;47.942;9.442;2023-10-13T01:32:23;94801.47;;;14.90;100.00
11487;BME280;10510;47.942;9.442;2023-10-13T01:34:23;94810.97;;;14.91;100.00
11487;BME280;10510;47.942;9.442;2023-10-13T01:36:27;94810.41;;;14.89;100.00
11487;BME280;10510;47.942;9.442;2023-10-13T01:38:27;94805.94;;;14.83;100.00
11487;BME280;10510;47.942;9.442;2023-10-13T01:40:28;94810.59;;;14.81;100.00
11487;BME280;10510;47.942;9.442;2023-10-13T01:42:32;94799.06;;;14.82;100.00
11487;BME280;10510;47.942;9.442;2023-10-13T01:44:32;94802.69;;;14.87;100.00
11487;BME280;10510;47.942;9.442;2023-10-13T01:46:33;94807.34;;;14.92;100.00
11487;BME280;10510;47.942;9.442;2023-10-13T01:48:37;94802.88;;;14.92;100.00
11487;BME280;10510;47.942;9.442;2023-10-13T01:50:40;94805.72;;;14.91;100.00
11487;BME280;10510;47.942;9.442;2023-10-13T01:52:40;94802.50;;;14.89;100.00
11487;BME280;10510;47.942;9.442;2023-10-13T01:54:45;94792.78;;;14.89;100.00
11487;BME280;10510;47.942;9.442;2023-10-13T01:56:46;94802.91;;;14.86;100.00
11487;BME280;10510;47.942;9.442;2023-10-13T01:58:48;94804.94;;;14.84;100.00
11487;BME280;10510;47.942;9.442;2023-10-13T02:00:49;94795.63;;;14.81;100.00
11487;BME280;10510;47.942;9.442;2023-10-13T02:02:49;94793.59;;;14.83;100.00
11487;BME280;10510;47.942;9.442;2023-10-13T02:04:51;94788.34;;;14.83;100.00
11487;BME280;10510;47.942;9.442;2023-10-13T02:06:57;94793.59;;;14.83;100.00
11487;BME280;10510;47.942;9.442;2023-10-13T02:08:59;94797.63;;;14.79;100.00
11487;BME280;10510;47.942;9.442;2023-10-13T02:11:04;94793.19;;;14.73;100.00
11487;BME280;10510;47.942;9.442;2023-10-13T02:13:07;94795.66;;;14.68;100.00
11487;BME280;10510;47.942;9.442;2023-10-13T02:15:15;94796.44;;;14.62;100.00
11487;BME280;10510;47.942;9.442;2023-10-13T02:17:21;94803.75;;;14.60;100.00
11487;BME280;10510;47.942;9.442;2023-10-13T02:19:23;94798.91;;;14.57;100.00
11487;BME280;10510;47.942;9.442;2023-10-13T02:21:27;94795.03;;;14.52;100.00
11487;BME280;10510;47.942;9.442;2023-10-13T02:23:31;94806.59;;;14.51;100.00
11487;BME280;10510;47.942;9.442;2023-10-13T02:25:34;94802.91;;;14.46;100.00
11487;BME280;10510;47.942;9.442;2023-10-13T02:27:45;94799.09;;;14.42;100.00
11487;BME280;10510;47.942;9.442;2023-10-13T02:29:58;94797.84;;;14.38;100.00
11487;BME280;10510;47.942;9.442;2023-10-13T02:32:01;94797.25;;;14.36;100.00
11487;BME280;10510;47.942;9.442;2023-10-13T02:34:05;94800.09;;;14.34;100.00
11487;BME280;10510;47.942;9.442;2023-10-13T02:36:08;94799.47;;;14.32;100.00
11487;BME280;10510;47.942;9.442;2023-10-13T02:38:11;94795.22;;;14.31;100.00
11487;BME280;10510;47.942;9.442;2023-10-13T02:40:12;94798.09;;;14.29;100.00
11487;BME280;10510;47.942;9.442;2023-10-13T02:42:12;94792.81;;;14.29;100.00
11487;BME280;10510;47.942;9.442;2023-10-13T02:44:24;94801.50;;;14.30;100.00
11487;BME280;10510;47.942;9.442;2023-10-13T02:46:28;94798.44;;;14.26;100.00
11487;BME280;10510;47.942;9.442;2023-10-13T02:48:30;94791.19;;;14.22;100.00
11487;BME280;10510;47.942;9.442;2023-10-13T02:50:40;94796.22;;;14.17;100.00
11487;BME280;10510;47.942;9.442;2023-10-13T02:52:44;94788.34;;;14.10;100.00
11487;BME280;10510;47.942;9.442;2023-10-13T02:54:48;94789.56;;;14.07;100.00
11487;BME280;10510;47.942;9.442;2023-10-13T02:56:50;94786.72;;;14.02;100.00
11487;BME280;10510;47.942;9.442;2023-10-13T02:58:57;94787.53;;;14.03;100.00
11487;BME280;10510;47.942;9.442;2023-10-13T03:00:57;94786.13;;;14.00;100.00
11487;BME280;10510;47.942;9.442;2023-10-13T03:02:57;94789.97;;;14.04;100.00
11487;BME280;10510;47.942;9.442;2023-10-13T03:05:01;94787.53;;;14.03;100.00
11487;BME280;10510;47.942;9.442;2023-10-13T03:07:09;94783.69;;;13.99;100.00
11487;BME280;10510;47.942;9.442;2023-10-13T03:09:10;94777.81;;;13.97;100.00
11487;BME280;10510;47.942;9.442;2023-10-13T03:11:18;94777.00;;;13.96;100.00
11487;BME280;10510;47.942;9.442;2023-10-13T03:13:22;94784.88;;;13.96;100.00
11487;BME280;10510;47.942;9.442;2023-10-13T03:15:22;94781.28;;;13.97;100.00
11487;BME280;10510;47.942;9.442;2023-10-13T03:17:30;94777.22;;;13.95;100.00
11487;BME280;10510;47.942;9.442;2023-10-13T03:19:33;94770.56;;;13.92;100.00
11487;BME280;10510;47.942;9.442;2023-10-13T03:21:34;94767.31;;;13.90;100.00
11487;BME280;10510;47.942;9.442;2023-10-13T03:23:36;94767.72;;;13.87;100.00
11487;BME280;10510;47.942;9.442;2023-10-13T03:25:45;94767.50;;;13.82;100.00
11487;BME280;10510;47.942;9.442;2023-10-13T03:27:51;94764.06;;;13.75;100.00
11487;BME280;10510;47.942;9.442;2023-10-13T03:29:51;94758.97;;;13.67;100.00
11487;BME280;10510;47.942;9.442;2023-10-13T03:31:54;94760.00;;;13.59;100.00
11487;BME280;10510;47.942;9.442;2023-10-13T03:34:06;94762.41;;;13.54;100.00
11487;BME280;10510;47.942;9.442;2023-10-13T03:36:13;94760.75;;;13.46;100.00
11487;BME280;10510;47.942;9.442;2023-10-13T03:38:33;94755.50;;;13.39;100.00
11487;BME280;10510;47.942;9.442;2023-10-13T03:40:39;94751.84;;;13.34;100.00
11487;BME280;10510;47.942;9.442;2023-10-13T03:42:40;94755.03;;;13.29;100.00
11487;BME280;10510;47.942;9.442;2023-10-13T03:44:40;94752.38;;;13.23;100.00
11487;BME280;10510;47.942;9.442;2023-10-13T03:46:40;94746.91;;;13.17;100.00
11487;BME280;10510;47.942;9.442;2023-10-13T03:48:41;94742.66;;;13.10;100.00
11487;BME280;10510;47.942;9.442;2023-10-13T03:50:56;94740.41;;;13.07;100.00
11487;BME280;10510;47.942;9.442;2023-10-13T03:53:10;94746.47;;;13.07;100.00
11487;BME280;10510;47.942;9.442;2023-10-13T03:55:13;94744.88;;;13.19;100.00
11487;BME280;10510;47.942;9.442;2023-10-13T03:57:17;94739.94;;;13.38;100.00
11487;BME280;10510;47.942;9.442;2023-10-13T03:59:18;94738.75;;;13.47;100.00
11487;BME280;10510;47.942;9.442;2023-10-13T04:01:18;94743.22;;;13.53;100.00
11487;BME280;10510;47.942;9.442;2023-10-13T04:03:18;94739.97;;;13.58;100.00
11487;BME280;10510;47.942;9.442;2023-10-13T04:05:19;94748.47;;;13.60;100.00
11487;BME280;10510;47.942;9.442;2023-10-13T04:07:36;94747.28;;;13.62;100.00
11487;BME280;10510;47.942;9.442;2023-10-13T04:09:40;94736.16;;;13.67;100.00
11487;BME280;10510;47.942;9.442;2023-10-13T04:11:40;94736.97;;;13.68;100.00
11487;BME280;10510;47.942;9.442;2023-10-13T04:13:59;94735.16;;;13.68;100.00
11487;BME280;10510;47.942;9.442;2023-10-13T04:16:17;94744.25;;;13.66;100.00
11487;BME280;10510;47.942;9.442;2023-10-13T04:18:21;94736.38;;;13.66;100.00
11487;BME280;10510;47.942;9.442;2023-10-13T04:20:40;94730.72;;;13.69;100.00
11487;BME280;10510;47.942;9.442;2023-10-13T04:22:46;94734.75;;;13.71;100.00
11487;BME280;10510;47.942;9.442;2023-10-13T04:24:48;94731.34;;;13.71;100.00
11487;BME280;10510;47.942;9.442;2023-10-13T04:27:00;94739.63;;;13.74;100.00
11487;BME280;10510;47.942;9.442;2023-10-13T04:29:12;94722.22;;;13.73;100.00
11487;BME280;10510;47.942;9.442;2023-10-13T04:31:27;94729.28;;;13.73;100.00
11487;BME280;10510;47.942;9.442;2023-10-13T04:33:46;94732.13;;;13.71;100.00
11487;BME280;10510;47.942;9.442;2023-10-13T04:36:03;94736.97;;;13.68;100.00
11487;BME280;10510;47.942;9.442;2023-10-13T04:38:13;94727.28;;;13.68;100.00
11487;BME280;10510;47.942;9.442;2023-10-13T04:40:33;94723.25;;;13.66;100.00
11487;BME280;10510;47.942;9.442;2023-10-13T04:42:36;94721.81;;;13.63;100.00
11487;BME280;10510;47.942;9.442;2023-10-13T04:44:49;94724.84;;;13.60;100.00
11487;BME280;10510;47.942;9.442;2023-10-13T04:46:54;94723.25;;;13.59;100.00
11487;BME280;10510;47.942;9.442;2023-10-13T04:49:07;94730.09;;;13.53;100.00
11487;BME280;10510;47.942;9.442;2023-10-13T04:51:10;94715.94;;;13.48;100.00
11487;BME280;10510;47.942;9.442;2023-10-13T04:53:39;94723.59;;;13.43;100.00
11487;BME280;10510;47.942;9.442;2023-10-13T04:56:01;94721.56;;;13.38;100.00
11487;BME280;10510;47.942;9.442;2023-10-13T04:58:04;94716.69;;;13.35;100.00
11487;BME280;10510;47.942;9.442;2023-10-13T05:00:36;94721.75;;;13.30;100.00
11487;BME280;10510;47.942;9.442;2023-10-13T05:02:55;94717.44;;;13.22;100.00
11487;BME280;10510;47.942;9.442;2023-10-13T05:05:02;94711.16;;;13.16;100.00
11487;BME280;10510;47.942;9.442;2023-10-13T05:07:06;94705.69;;;13.05;100.00
11487;BME280;10510;47.942;9.442;2023-10-13T05:09:25;94711.69;;;12.92;100.00
11487;BME280;10510;47.942;9.442;2023-10-13T05:11:43;94706.84;;;12.89;100.00
11487;BME280;10510;47.942;9.442;2023-10-13T05:14:02;94700.75;;;12.82;100.00
11487;BME280;10510;47.942;9.442;2023-10-13T05:16:21;94702.16;;;12.78;100.00
11487;BME280;10510;47.942;9.442;2023-10-13T05:18:40;94697.69;;;12.71;100.00
11487;BME280;10510;47.942;9.442;2023-10-13T05:20:58;94702.91;;;12.65;100.00
11487;BME280;10510;47.942;9.442;2023-10-13T05:23:17;94703.47;;;12.60;100.00
11487;BME280;10510;47.942;9.442;2023-10-13T05:25:37;94712.34;;;12.59;100.00
11487;BME280;10510;47.942;9.442;2023-10-13T05:27:56;94702.25;;;12.56;100.00
11487;BME280;10510;47.942;9.442;2023-10-13T05:30:15;94709.25;;;12.49;100.00
11487;BME280;10510;47.942;9.442;2023-10-13T05:32:34;94705.00;;;12.41;100.00
11487;BME280;10510;47.942;9.442;2023-10-13T05:34:53;94714.22;;;12.37;100.00
11487;BME280;10510;47.942;9.442;2023-10-13T05:37:11;94709.59;;;12.33;100.00
11487;BME280;10510;47.942;9.442;2023-10-13T05:39:30;94715.88;;;12.38;100.00
11487;BME280;10510;47.942;9.442;2023-10-13T05:41:49;94716.03;;;12.37;100.00
11487;BME280;10510;47.942;9.442;2023-10-13T05:44:08;94711.75;;;12.29;100.00
11487;BME280;10510;47.942;9.442;2023-10-13T05:46:27;94724.06;;;12.28;100.00
11487;BME280;10510;47.942;9.442;2023-10-13T05:48:27;94720.84;;;12.26;100.00
11487;BME280;10510;47.942;9.442;2023-10-13T05:51:03;94723.44;;;12.26;100.00
11487;BME280;10510;47.942;9.442;2023-10-13T05:53:22;94719.19;;;12.25;100.00
11487;BME280;10510;47.942;9.442;2023-10-13T05:55:41;94720.19;;;12.24;100.00
11487;BME280;10510;47.942;9.442;2023-10-13T05:57:59;94718.78;;;12.22;100.00
11487;BME280;10510;47.942;9.442;2023-10-13T06:00:18;94722.19;;;12.22;100.00
11487;BME280;10510;47.942;9.442;2023-10-13T06:02:37;94724.63;;;12.24;100.00
11487;BME280;10510;47.942;9.442;2023-10-13T06:04:56;94719.00;;;12.27;100.00
11487;BME280;10510;47.942;9.442;2023-10-13T06:07:15;94730.31;;;12.27;100.00
11487;BME280;10510;47.942;9.442;2023-10-13T06:09:34;94723.66;;;12.32;100.00
11487;BME280;10510;47.942;9.442;2023-10-13T06:11:52;94722.84;;;12.31;100.00
11487;BME280;10510;47.942;9.442;2023-10-13T06:14:11;94722.47;;;12.34;100.00
11487;BME280;10510;47.942;9.442;2023-10-13T06:16:30;94729.16;;;12.37;100.00
11487;BME280;10510;47.942;9.442;2023-10-13T06:18:54;94735.03;;;12.39;100.00
11487;BME280;10510;47.942;9.442;2023-10-13T06:21:12;94724.84;;;12.29;100.00
11487;BME280;10510;47.942;9.442;2023-10-13T06:23:31;94731.06;;;12.21;100.00
11487;BME280;10510;47.942;9.442;2023-10-13T06:25:53;94730.69;;;12.24;100.00
11487;BME280;10510;47.942;9.442;2023-10-13T06:28:12;94735.34;;;12.29;100.00
11487;BME280;10510;47.942;9.442;2023-10-13T06:30:31;94734.53;;;12.28;100.00
11487;BME280;10510;47.942;9.442;2023-10-13T06:32:33;94734.16;;;12.32;100.00
11487;BME280;10510;47.942;9.442;2023-10-13T06:34:33;94733.97;;;12.33;100.00
11487;BME280;10510;47.942;9.442;2023-10-13T06:36:45;94735.19;;;12.37;100.00
11487;BME280;10510;47.942;9.442;2023-10-13T06:38:47;94733.00;;;12.41;100.00
11487;BME280;10510;47.942;9.442;2023-10-13T06:40:55;94734.25;;;12.45;100.00
11487;BME280;10510;47.942;9.442;2023-10-13T06:42:56;94743.75;;;12.53;100.00
11487;BME280;10510;47.942;9.442;2023-10-13T06:45:12;94739.75;;;12.57;100.00
11487;BME280;10510;47.942;9.442;2023-10-13T06:47:12;94737.78;;;12.65;100.00
11487;BME280;10510;47.942;9.442;2023-10-13T06:49:13;94735.59;;;12.69;100.00
11487;BME280;10510;47.942;9.442;2023-10-13T06:51:14;94742.50;;;12.77;100.00
11487;BME280;10510;47.942;9.442;2023-10-13T06:53:19;94739.69;;;12.85;100.00
11487;BME280;10510;47.942;9.442;2023-10-13T06:55:19;94746.22;;;12.95;100.00
11487;BME280;10510;47.942;9.442;2023-10-13T06:57:24;94743.84;;;13.07;100.00
11487;BME280;10510;47.942;9.442;2023-10-13T06:59:24;94747.34;;;13.21;100.00
11487;BME280;10510;47.942;9.442;2023-10-13T07:01:27;94745.56;;;13.35;100.00
11487;BME280;10510;47.942;9.442;2023-10-13T07:03:27;94741.19;;;13.49;100.00
11487;BME280;10510;47.942;9.442;2023-10-13T07:05:27;94748.66;;;13.58;100.00
11487;BME280;10510;47.942;9.442;2023-10-13T07:07:27;94744.25;;;13.72;100.00
11487;BME280;10510;47.942;9.442;2023-10-13T07:09:28;94750.16;;;13.94;100.00
11487;BME280;10510;47.942;9.442;2023-10-13T07:11:34;94753.38;;;14.16;100.00
11487;BME280;10510;47.942;9.442;2023-10-13T07:13:34;94753.41;;;14.29;100.00
11487;BME280;10510;47.942;9.442;2023-10-13T07:15:38;94750.16;;;14.54;100.00
11487;BME280;10510;47.942;9.442;2023-10-13T07:17:47;94748.91;;;14.76;100.00
11487;BME280;10510;47.942;9.442;2023-10-13T07:19:55;94751.66;;;15.02;100.00
11487;BME280;10510;47.942;9.442;2023-10-13T07:22:01;94748.91;;;15.28;100.00
11487;BME280;10510;47.942;9.442;2023-10-13T07:24:31;94751.34;;;15.75;100.00
11487;BME280;10510;47.942;9.442;2023-10-13T07:26:31;94757.31;;;17.74;100.00
11487;BME280;10510;47.942;9.442;2023-10-13T07:28:34;94747.50;;;20.20;100.00
11487;BME280;10510;47.942;9.442;2023-10-13T07:30:38;94744.44;;;22.43;100.00
11487;BME280;10510;47.942;9.442;2023-10-13T07:32:54;94744.50;;;24.73;100.00
11487;BME280;10510;47.942;9.442;2023-10-13T07:34:59;94746.16;;;26.09;100.00
11487;BME280;10510;47.942;9.442;2023-10-13T07:37:10;94745.09;;;27.07;100.00
11487;BME280;10510;47.942;9.442;2023-10-13T07:39:16;94735.97;;;27.99;100.00
11487;BME280;10510;47.942;9.442;2023-10-13T07:41:23;94738.19;;;29.14;100.00
11487;BME280;10510;47.942;9.442;2023-10-13T07:43:30;94734.13;;;30.08;100.00
11487;BME280;10510;47.942;9.442;2023-10-13T07:45:32;94742.03;;;30.05;100.00
11487;BME280;10510;47.942;9.442;2023-10-13T07:47:38;94735.47;;;30.33;100.00
11487;BME280;10510;47.942;9.442;2023-10-13T07:49:40;94746.84;;;30.53;100.00
11487;BME280;10510;47.942;9.442;2023-10-13T07:51:40;94743.19;;;30.94;100.00
11487;BME280;10510;47.942;9.442;2023-10-13T07:53:49;94735.84;;;31.17;100.00
11487;BME280;10510;47.942;9.442;2023-10-13T07:55:50;94741.06;;;31.44;100.00
11487;BME280;10510;47.942;9.442;2023-10-13T07:57:56;94734.31;;;31.33;100.00
11487;BME280;10510;47.942;9.442;2023-10-13T08:00:00;94727.34;;;31.89;100.00
11487;BME280;10510;47.942;9.442;2023-10-13T08:02:25;94725.00;;;32.40;100.00
11487;BME280;10510;47.942;9.442;2023-10-13T08:04:44;94728.44;;;33.01;100.00
11487;BME280;10510;47.942;9.442;2023-10-13T08:06:44;94726.41;;;32.81;100.00
11487;BME280;10510;47.942;9.442;2023-10-13T08:08:46;94722.56;;;32.99;100.00
11487;BME280;10510;47.942;9.442;2023-10-13T08:10:50;94718.91;;;33.42;100.00
11487;BME280;10510;47.942;9.442;2023-10-13T08:12:55;94714.56;;;33.80;100.00
11487;BME280;10510;47.942;9.442;2023-10-13T08:14:58;94713.78;;;34.00;100.00
11487;BME280;10510;47.942;9.442;2023-10-13T08:17:12;94712.25;;;33.90;100.00
11487;BME280;10510;47.942;9.442;2023-10-13T08:19:18;94711.25;;;34.25;100.00
11487;BME280;10510;47.942;9.442;2023-10-13T08:21:19;94709.88;;;34.52;100.00
11487;BME280;10510;47.942;9.442;2023-10-13T08:23:32;94711.34;;;34.82;100.00
11487;BME280;10510;47.942;9.442;2023-10-13T08:25:55;94707.75;;;35.24;100.00
11487;BME280;10510;47.942;9.442;2023-10-13T08:28:29;94697.19;;;35.47;100.00
11487;BME280;10510;47.942;9.442;2023-10-13T08:30:39;94704.34;;;35.64;100.00
11487;BME280;10510;47.942;9.442;2023-10-13T08:32:52;94699.97;;;36.12;100.00
11487;BME280;10510;47.942;9.442;2023-10-13T08:34:58;94705.19;;;36.17;100.00
11487;BME280;10510;47.942;9.442;2023-10-13T08:36:59;94700.13;;;35.91;100.00
11487;BME280;10510;47.942;9.442;2023-10-13T08:39:00;94696.22;;;35.64;100.00
11487;BME280;10510;47.942;9.442;2023-10-13T08:41:20;94693.47;;;35.39;100.00
11487;BME280;10510;47.942;9.442;2023-10-13T08:43:20;94691.34;;;35.45;100.00
11487;BME280;10510;47.942;9.442;2023-10-13T08:45:23;94693.81;;;35.50;100.00
11487;BME280;10510;47.942;9.442;2023-10-13T08:47:23;94694.59;;;35.26;100.00
11487;BME280;10510;47.942;9.442;2023-10-13T08:49:30;94694.44;;;34.98;100.00
11487;BME280;10510;47.942;9.442;2023-10-13T08:51:33;94690.72;;;33.94;100.00
11487;BME280;10510;47.942;9.442;2023-10-13T08:53:50;94696.06;;;32.49;100.00
11487;BME280;10510;47.942;9.442;2023-10-13T08:56:07;94703.38;;;30.68;100.00
11487;BME280;10510;47.942;9.442;2023-10-13T08:58:14;94699.63;;;29.74;100.00
11487;BME280;10510;47.942;9.442;2023-10-13T09:00:14;94698.28;;;28.75;100.00
11487;BME280;10510;47.942;9.442;2023-10-13T09:02:28;94697.06;;;27.35;100.00
11487;BME280;10510;47.942;9.442;2023-10-13T09:04:49;94703.03;;;26.79;100.00
11487;BME280;10510;47.942;9.442;2023-10-13T09:07:01;94702.63;;;27.20;100.00
11487;BME280;10510;47.942;9.442;2023-10-13T09:09:07;94695.66;;;27.85;100.00
11487;BME280;10510;47.942;9.442;2023-10-13T09:11:08;94696.72;;;26.93;100.00
11487;BME280;10510;47.942;9.442;2023-10-13T09:13:12;94699.34;;;26.99;100.00
11487;BME280;10510;47.942;9.442;2023-10-13T09:15:28;94694.81;;;28.23;100.00
11487;BME280;10510;47.942;9.442;2023-10-13T09:17:50;94689.38;;;29.99;100.00
11487;BME280;10510;47.942;9.442;2023-10-13T09:19:52;94696.81;;;30.16;100.00
11487;BME280;10510;47.942;9.442;2023-10-13T09:21:58;94686.38;;;29.23;100.00
11487;BME280;10510;47.942;9.442;2023-10-13T09:23:58;94688.59;;;29.07;100.00
11487;BME280;10510;47.942;9.442;2023-10-13T09:26:17;94691.06;;;29.31;100.00
11487;BME280;10510;47.942;9.442;2023-10-13T09:28:20;94693.72;;;29.03;100.00
11487;BME280;10510;47.942;9.442;2023-10-13T09:30:25;94699.41;;;28.03;100.00
11487;BME280;10510;47.942;9.442;2023-10-13T09:32:28;94702.81;;;26.99;100.00
11487;BME280;10510;47.942;9.442;2023-10-13T09:34:29;94698.81;;;26.38;100.00
11487;BME280;10510;47.942;9.442;2023-10-13T09:36:30;94702.63;;;25.93;100.00
11487;BME280;10510;47.942;9.442;2023-10-13T09:38:34;94697.38;;;25.82;100.00
11487;BME280;10510;47.942;9.442;2023-10-13T09:40:34;94687.53;;;26.41;100.00
11487;BME280;10510;47.942;9.442;2023-10-13T09:42:38;94676.59;;;26.96;100.00
11487;BME280;10510;47.942;9.442;2023-10-13T09:44:39;94681.81;;;26.82;100.00
11487;BME280;10510;47.942;9.442;2023-10-13T09:46:40;94675.69;;;26.53;100.00
11487;BME280;10510;47.942;9.442;2023-10-13T09:48:46;94668.06;;;26.36;100.00
11487;BME280;10510;47.942;9.442;2023-10-13T09:50:48;94675.16;;;26.16;100.00
11487;BME280;10510;47.942;9.442;2023-10-13T09:52:48;94678.47;;;26.03;100.00
11487;BME280;10510;47.942;9.442;2023-10-13T09:55:06;94675.78;;;26.03;100.00
11487;BME280;10510;47.942;9.442;2023-10-13T09:57:15;94674.06;;;26.17;100.00
11487;BME280;10510;47.942;9.442;2023-10-13T09:59:22;94668.78;;;26.12;100.00
11487;BME280;10510;47.942;9.442;2023-10-13T10:01:27;94666.59;;;26.14;100.00
11487;BME280;10510;47.942;9.442;2023-10-13T10:03:47;94671.97;;;26.14;100.00
11487;BME280;10510;47.942;9.442;2023-10-13T10:06:11;94669.09;;;26.05;100.00
11487;BME280;10510;47.942;9.442;2023-10-13T10:08:27;94667.25;;;26.01;100.00
11487;BME280;10510;47.942;9.442;2023-10-13T10:10:59;94659.47;;;26.04;100.00
11487;BME280;10510;47.942;9.442;2023-10-13T10:13:08;94656.78;;;26.04;100.00
11487;BME280;10510;47.942;9.442;2023-10-13T10:17:38;94658.91;;;26.08;100.00
11487;BME280;10510;47.942;9.442;2023-10-13T10:19:50;94648.84;;;26.23;100.00
11487;BME280;10510;47.942;9.442;2023-10-13T10:22:05;94648.63;;;26.20;100.00
11487;BME280;10510;47.942;9.442;2023-10-13T10:24:21;94645.81;;;26.06;100.00
11487;BME280;10510;47.942;9.442;2023-10-13T10:26:30;94657.34;;;26.01;100.00
11487;BME280;10510;47.942;9.442;2023-10-13T10:28:37;94648.00;;;25.99;100.00
11487;BME280;10510;47.942;9.442;2023-10-13T10:30:38;94648.78;;;25.99;100.00
11487;BME280;10510;47.942;9.442;2023-10-13T10:32:39;94643.59;;;26.13;100.00
11487;BME280;10510;47.942;9.442;2023-10-13T10:34:49;94644.50;;;26.33;100.00
11487;BME280;10510;47.942;9.442;2023-10-13T10:36:54;94645.50;;;26.42;100.00
11487;BME280;10510;47.942;9.442;2023-10-13T10:38:55;94638.78;;;26.44;100.00
11487;BME280;10510;47.942;9.442;2023-10-13T10:41:04;94636.63;;;26.41;100.00
11487;BME280;10510;47.942;9.442;2023-10-13T10:43:05;94640.22;;;26.32;100.00
11487;BME280;10510;47.942;9.442;2023-10-13T10:45:10;94632.94;;;26.37;100.00
11487;BME280;10510;47.942;9.442;2023-10-13T10:47:13;94634.28;;;26.35;100.00
11487;BME280;10510;47.942;9.442;2023-10-13T10:49:37;94633.50;;;26.34;100.00
11487;BME280;10510;47.942;9.442;2023-10-13T10:51:44;94628.25;;;26.53;100.00
11487;BME280;10510;47.942;9.442;2023-10-13T10:53:45;94623.47;;;26.50;100.00
11487;BME280;10510;47.942;9.442;2023-10-13T10:55:45;94624.00;;;26.47;100.00
11487;BME280;10510;47.942;9.442;2023-10-13T10:57:45;94624.63;;;26.39;100.00
11487;BME280;10510;47.942;9.442;2023-10-13T10:59:49;94622.06;;;26.23;100.00
11487;BME280;10510;47.942;9.442;2023-10-13T11:02:10;94620.59;;;26.12;100.00
11487;BME280;10510;47.942;9.442;2023-10-13T11:04:15;94614.72;;;26.39;100.00
11487;BME280;10510;47.942;9.442;2023-10-13T11:06:19;94612.09;;;26.63;100.00
11487;BME280;10510;47.942;9.442;2023-10-13T11:08:24;94602.91;;;26.69;100.00
11487;BME280;10510;47.942;9.442;2023-10-13T11:10:31;94596.75;;;26.69;100.00